Quick Links (Output Below):   Max & Min Temps   /   Climate Reports   /   Zone Forecasts
River Forecasts   /   Forestry Forecasts   /   Aviation Forecasts   /   Radars   /   Features

Terminal Aerodrome Forecast (Hot Springs)

Pick a Site:
Arkadelphia | El Dorado | Fayetteville | Fort Smith | Harrison | Highfill | Hot Springs | Jonesboro
Little Rock | Monticello | Mountain Home | Pine Bluff | Texarkana

KHOT 261740Z 2618/2718 14009KT P6SM OVC015
     FM270000 16010G20KT P6SM OVC012
      TEMPO 2704/2708 5SM -SHRA BR OVC008
     FM270800 15009KT 4SM -RA BR OVC006
     FM271200 15008KT 2SM RA BR OVC004=

 Latest METARs (Observations) 
How to Decode METARs
17Z KHOT 261653Z AUTO 14004KT 10SM OVC015 18/14 A3033 RMK AO2 SLP265
16Z KHOT 261553Z AUTO 13008KT 10SM OVC015 18/14 A3033 RMK AO2 SLP267
15Z KHOT 261453Z AUTO 14006KT 10SM OVC015 17/14 A3034 RMK AO2 SLP269
         T01720139 53015
14Z KHOT 261353Z AUTO 14007KT 10SM OVC014 17/14 A3032 RMK AO2 SLP264
13Z KHOT 261253Z AUTO 13004KT 10SM OVC012 17/14 A3030 RMK AO2 SLP257
12Z KHOT 261153Z AUTO 13005KT 10SM OVC013 17/14 A3029 RMK AO2 SLP254
         T01720144 10178 20167 53009
11Z KHOT 261053Z AUTO 15006KT 10SM OVC017 17/14 A3028 RMK AO2 SLP249
10Z KHOT 260953Z AUTO 12004KT 10SM BKN018 BKN060 OVC080 17/14 A3027
         RMK AO2 SLP246 T01670144
09Z KHOT 260853Z AUTO 16007KT 10SM BKN080 17/14 A3026 RMK AO2 SLP244
         T01720144 53006
08Z KHOT 260753Z AUTO 15007KT 10SM BKN015 BKN041 OVC080 17/14 A3025
         RMK AO2 SLP242 T01720144
***** Today's Observations (Above) *****

Back to Main Page

USA.gov is the U.S. government's official web portal to all federal, state and local government web resources and services.